createdAt,value
2022-11-26T00:01:42.190Z,25.20
2022-11-26T00:04:09.558Z,23.93
2022-11-26T00:06:37.334Z,30.07
2022-11-26T00:09:05.146Z,29.50
2022-11-26T00:11:32.006Z,28.13
2022-11-26T00:13:58.561Z,24.80
2022-11-26T00:16:25.164Z,26.30
2022-11-26T00:18:52.047Z,26.50
2022-11-26T00:21:22.941Z,34.63
2022-11-26T00:23:49.685Z,30.83
2022-11-26T00:26:18.391Z,31.13
2022-11-26T00:28:50.933Z,31.90
2022-11-26T00:31:18.062Z,36.03
2022-11-26T00:33:44.718Z,27.97
2022-11-26T00:36:20.009Z,28.97
2022-11-26T00:38:47.338Z,26.13
2022-11-26T00:41:24.811Z,31.40
2022-11-26T00:43:51.397Z,28.13
2022-11-26T00:46:19.589Z,31.43
2022-11-26T00:48:46.565Z,30.90
2022-11-26T00:51:15.474Z,28.50
2022-11-26T00:53:42.802Z,31.80
2022-11-26T00:56:14.081Z,30.73
2022-11-26T00:58:40.884Z,32.40
2022-11-26T01:01:09.116Z,31.83
2022-11-26T01:03:35.780Z,33.43
2022-11-26T01:06:02.398Z,27.47
2022-11-26T01:08:34.093Z,34.40
2022-11-26T01:11:01.699Z,27.70
2022-11-26T01:13:28.510Z,26.60
2022-11-26T01:15:55.938Z,30.37
2022-11-26T01:18:23.606Z,28.70
2022-11-26T01:20:50.542Z,25.73
2022-11-26T01:23:18.350Z,29.83
2022-11-26T01:25:45.740Z,30.87
2022-11-26T01:28:13.621Z,28.47
2022-11-26T01:30:41.004Z,33.47
2022-11-26T01:33:07.976Z,28.63
2022-11-26T01:35:35.103Z,29.60
2022-11-26T01:38:01.770Z,32.50
2022-11-26T01:40:35.217Z,31.53
2022-11-26T01:43:17.214Z,33.80
2022-11-26T01:45:43.917Z,28.17
2022-11-26T01:48:20.591Z,28.17
2022-11-26T01:50:50.834Z,35.97
2022-11-26T01:53:27.997Z,34.53
2022-11-26T01:55:56.795Z,32.87
2022-11-26T01:58:26.417Z,32.67
2022-11-26T02:00:53.155Z,33.07
2022-11-26T02:03:22.630Z,31.33
2022-11-26T02:05:54.346Z,33.00
2022-11-26T02:08:20.990Z,31.90
2022-11-26T02:10:47.582Z,28.13
2022-11-26T02:13:14.145Z,32.60
2022-11-26T02:15:49.156Z,34.03
2022-11-26T02:18:15.861Z,32.80
2022-11-26T02:20:43.435Z,32.23
2022-11-26T02:23:33.249Z,35.40
2022-11-26T02:26:08.854Z,35.70
2022-11-26T02:28:41.335Z,30.53
2022-11-26T02:31:16.153Z,33.87
2022-11-26T02:34:01.561Z,30.00
2022-11-26T02:36:32.396Z,32.77
2022-11-26T02:39:10.651Z,35.03
2022-11-26T02:41:49.721Z,32.87
2022-11-26T02:44:17.281Z,35.80
2022-11-26T02:46:46.282Z,34.30
2022-11-26T02:49:13.910Z,34.80
2022-11-26T02:51:41.690Z,31.33
2022-11-26T02:54:09.430Z,31.43
2022-11-26T02:56:36.237Z,31.23
2022-11-26T02:59:03.908Z,34.53
2022-11-26T03:01:32.428Z,31.47
2022-11-26T03:04:00.610Z,36.63
2022-11-26T03:06:30.158Z,35.30
2022-11-26T03:08:56.839Z,37.30
2022-11-26T03:11:23.420Z,34.33
2022-11-26T03:13:50.354Z,39.60
2022-11-26T03:16:17.156Z,36.27
2022-11-26T03:18:43.714Z,36.03
2022-11-26T03:21:10.265Z,40.63
2022-11-26T03:23:36.948Z,35.53
2022-11-26T03:26:03.494Z,35.83
2022-11-26T03:28:30.364Z,36.07
2022-11-26T03:30:56.968Z,38.00
2022-11-26T03:33:23.674Z,34.77
2022-11-26T03:35:50.267Z,41.63
2022-11-26T03:38:17.032Z,36.83
2022-11-26T03:40:43.761Z,36.20
2022-11-26T03:43:10.340Z,36.73
2022-11-26T03:45:36.961Z,37.57
2022-11-26T03:48:03.758Z,42.33
2022-11-26T03:50:30.322Z,38.30
2022-11-26T03:52:56.913Z,37.27
2022-11-26T03:55:23.433Z,38.53
2022-11-26T03:57:50.161Z,36.90
2022-11-26T04:00:17.704Z,31.77
2022-11-26T04:02:44.406Z,36.83
2022-11-26T04:05:10.958Z,36.00
2022-11-26T04:07:37.574Z,32.60
2022-11-26T04:10:04.595Z,34.13
2022-11-26T04:12:31.252Z,38.17
2022-11-26T04:14:57.925Z,32.60
2022-11-26T04:17:24.568Z,32.40
2022-11-26T04:19:51.194Z,34.50
2022-11-26T04:22:17.930Z,31.60
2022-11-26T04:24:44.545Z,34.17
2022-11-26T04:27:11.239Z,33.93
2022-11-26T04:29:37.935Z,34.43
2022-11-26T04:32:05.241Z,37.30
2022-11-26T04:34:32.047Z,32.53
2022-11-26T04:36:58.702Z,31.80
2022-11-26T04:39:25.440Z,34.23
2022-11-26T04:41:52.106Z,35.20
2022-11-26T04:44:18.828Z,29.13
2022-11-26T04:46:45.459Z,31.17
2022-11-26T04:49:12.289Z,29.43
2022-11-26T04:51:39.057Z,38.30
2022-11-26T04:54:09.993Z,34.23
2022-11-26T04:56:39.509Z,28.60
2022-11-26T04:59:06.202Z,36.63
2022-11-26T05:01:32.920Z,29.93
2022-11-26T05:03:59.637Z,31.10
2022-11-26T05:06:26.336Z,35.07
2022-11-26T05:08:53.099Z,35.10
2022-11-26T05:11:19.788Z,34.23
2022-11-26T05:13:46.387Z,29.47
2022-11-26T05:16:13.159Z,33.27
2022-11-26T05:18:39.893Z,31.93
2022-11-26T05:21:07.202Z,29.83
2022-11-26T05:23:33.900Z,35.13
2022-11-26T05:26:00.510Z,37.50
2022-11-26T05:28:27.177Z,32.40
2022-11-26T05:31:00.918Z,36.07
2022-11-26T05:33:28.086Z,31.17
2022-11-26T05:35:54.929Z,30.83
2022-11-26T05:38:21.849Z,37.30
2022-11-26T05:40:48.607Z,30.97
2022-11-26T05:43:15.332Z,33.90
2022-11-26T05:45:42.076Z,37.57
2022-11-26T05:48:08.725Z,37.00
2022-11-26T05:50:35.875Z,29.67
2022-11-26T05:53:03.003Z,26.03
2022-11-26T05:55:29.845Z,29.67
2022-11-26T05:57:56.510Z,38.73
2022-11-26T06:00:23.426Z,33.23
2022-11-26T06:02:50.318Z,34.90
2022-11-26T06:05:17.195Z,29.73
2022-11-26T06:07:45.054Z,36.63
2022-11-26T06:10:12.255Z,31.50
2022-11-26T06:12:39.004Z,31.73
2022-11-26T06:15:06.033Z,30.77
2022-11-26T06:17:32.823Z,28.67
2022-11-26T06:19:59.937Z,34.10
2022-11-26T06:22:26.579Z,30.83
2022-11-26T06:24:53.235Z,31.13
2022-11-26T06:27:19.884Z,31.03
2022-11-26T06:29:46.513Z,30.33
2022-11-26T06:32:13.169Z,27.83
2022-11-26T06:34:42.589Z,30.60
2022-11-26T06:37:10.987Z,26.13
2022-11-26T06:39:37.639Z,24.73
2022-11-26T06:42:04.392Z,23.63
2022-11-26T06:44:31.049Z,23.77
2022-11-26T06:46:57.748Z,23.43
2022-11-26T06:49:24.377Z,21.17
2022-11-26T06:51:51.086Z,24.27
2022-11-26T06:54:17.796Z,22.87
2022-11-26T06:56:44.608Z,24.20
2022-11-26T06:59:11.394Z,22.60
2022-11-26T07:01:38.322Z,25.30
2022-11-26T07:04:05.156Z,18.50
2022-11-26T07:06:32.905Z,20.87
2022-11-26T07:09:02.576Z,20.70
2022-11-26T07:11:29.698Z,13.87
2022-11-26T07:13:57.181Z,18.83
2022-11-26T07:16:24.214Z,21.47
2022-11-26T07:18:54.337Z,42.97
2022-11-26T07:21:25.028Z,77.07
2022-11-26T07:23:52.120Z,25.60
2022-11-26T07:26:19.794Z,23.03
2022-11-26T07:28:49.276Z,36.10
2022-11-26T07:31:17.371Z,85.10
2022-11-26T07:33:44.804Z,28.53
2022-11-26T07:36:14.204Z,24.77
2022-11-26T07:38:40.853Z,18.53
2022-11-26T07:41:09.028Z,17.60
2022-11-26T07:43:36.694Z,42.43
2022-11-26T07:46:04.728Z,19.37
2022-11-26T07:48:31.872Z,10.97
2022-11-26T07:50:58.867Z,16.87
2022-11-26T07:53:27.821Z,12.37
2022-11-26T07:55:54.746Z,16.70
2022-11-26T07:58:21.487Z,12.70
2022-11-26T08:00:53.168Z,10.80
2022-11-26T08:03:21.195Z,12.90
2022-11-26T08:05:47.833Z,14.77
2022-11-26T08:08:14.623Z,13.57
2022-11-26T08:10:41.336Z,17.13
2022-11-26T08:13:08.010Z,13.03
2022-11-26T08:15:35.575Z,16.73
2022-11-26T08:18:02.429Z,17.97
2022-11-26T08:20:29.438Z,13.67
2022-11-26T08:22:56.141Z,13.90
2022-11-26T08:25:22.900Z,8.67
2022-11-26T08:27:49.601Z,16.97
2022-11-26T08:30:16.355Z,14.50
2022-11-26T08:32:43.097Z,12.60
2022-11-26T08:35:09.824Z,12.57
2022-11-26T08:37:36.420Z,10.13
2022-11-26T08:40:03.353Z,13.60
2022-11-26T08:42:30.845Z,16.60
2022-11-26T08:44:57.656Z,13.60
2022-11-26T08:47:24.461Z,13.80
2022-11-26T08:49:51.107Z,16.63
2022-11-26T08:52:17.745Z,12.67
2022-11-26T08:54:45.491Z,13.70
2022-11-26T08:57:12.347Z,12.10
2022-11-26T08:59:38.984Z,13.83
2022-11-26T09:02:05.641Z,17.43
2022-11-26T09:04:32.334Z,14.37
2022-11-26T09:06:58.999Z,12.83
2022-11-26T09:09:25.885Z,15.67
2022-11-26T09:11:56.182Z,15.47
2022-11-26T09:14:25.066Z,13.67
2022-11-26T09:16:52.499Z,14.47
2022-11-26T09:19:19.343Z,15.80
2022-11-26T09:21:46.197Z,12.27
2022-11-26T09:24:13.241Z,14.70
2022-11-26T09:26:40.369Z,12.53
2022-11-26T09:29:07.007Z,16.73
2022-11-26T09:31:33.827Z,18.13
2022-11-26T09:34:01.221Z,17.50
2022-11-26T09:36:28.513Z,13.90
2022-11-26T09:38:55.963Z,16.53
2022-11-26T09:41:34.878Z,15.90
2022-11-26T09:44:10.343Z,15.83
2022-11-26T09:46:57.203Z,15.73
2022-11-26T09:49:30.328Z,21.70
2022-11-26T09:51:59.130Z,17.07
2022-11-26T09:54:28.701Z,16.20
2022-11-26T09:56:59.480Z,10.13
2022-11-26T09:59:26.688Z,12.57
2022-11-26T10:01:53.340Z,16.17
2022-11-26T10:04:24.726Z,13.50
2022-11-26T10:07:00.510Z,9.60
2022-11-26T10:09:33.514Z,13.63
2022-11-26T10:12:02.918Z,12.50
2022-11-26T10:14:37.703Z,15.10
2022-11-26T10:17:23.328Z,11.60
2022-11-26T10:19:52.776Z,18.47
2022-11-26T10:22:37.585Z,15.27
2022-11-26T10:25:04.448Z,14.23
2022-11-26T10:27:33.980Z,21.77
2022-11-26T10:30:16.989Z,9.53
2022-11-26T10:32:44.938Z,13.50
2022-11-26T10:35:19.029Z,11.53
2022-11-26T10:37:45.757Z,15.13
2022-11-26T10:40:24.921Z,13.30
2022-11-26T10:43:08.413Z,22.13
2022-11-26T10:45:36.672Z,12.43
2022-11-26T10:48:15.046Z,10.93
2022-11-26T10:50:49.029Z,10.03
2022-11-26T10:53:23.317Z,14.77
2022-11-26T10:55:50.823Z,11.43
2022-11-26T10:58:20.169Z,14.37
2022-11-26T11:00:46.800Z,11.23
2022-11-26T11:03:18.006Z,12.97
2022-11-26T11:05:44.841Z,10.90
2022-11-26T11:08:15.568Z,13.13
2022-11-26T11:10:53.338Z,14.13
2022-11-26T11:13:19.970Z,11.27
2022-11-26T11:15:46.646Z,11.10
2022-11-26T11:18:13.251Z,10.13
2022-11-26T11:20:44.012Z,8.67
2022-11-26T11:23:10.659Z,14.97
2022-11-26T11:25:39.825Z,15.47
2022-11-26T11:28:12.201Z,14.30
2022-11-26T11:30:40.516Z,11.00
2022-11-26T11:33:11.801Z,13.43
2022-11-26T11:35:38.442Z,10.50
2022-11-26T11:38:05.052Z,13.03
2022-11-26T11:40:40.653Z,12.30
2022-11-26T11:43:07.818Z,10.93
2022-11-26T11:45:39.602Z,14.50
2022-11-26T11:48:19.947Z,12.33
2022-11-26T11:50:54.243Z,9.73
2022-11-26T11:53:34.702Z,14.20
2022-11-26T11:56:14.155Z,13.37
2022-11-26T11:58:40.881Z,12.90
2022-11-26T12:01:22.562Z,15.50
2022-11-26T12:04:05.135Z,17.27
2022-11-26T12:06:54.936Z,11.53
2022-11-26T12:09:25.565Z,12.17
2022-11-26T12:11:58.097Z,14.40
2022-11-26T12:14:28.803Z,7.33
2022-11-26T12:17:05.222Z,9.07
2022-11-26T12:19:38.250Z,11.40
2022-11-26T12:22:15.337Z,14.53
2022-11-26T12:24:42.019Z,8.80
2022-11-26T12:27:31.650Z,11.00
2022-11-26T12:30:06.362Z,15.87
2022-11-26T12:32:49.482Z,14.97
2022-11-26T12:35:20.808Z,8.90
2022-11-26T12:37:50.414Z,11.80
2022-11-26T12:40:23.138Z,13.13
2022-11-26T12:43:02.265Z,10.90
2022-11-26T12:45:44.096Z,11.70
2022-11-26T12:48:17.882Z,11.23
2022-11-26T12:50:47.024Z,11.13
2022-11-26T12:53:18.824Z,10.30
2022-11-26T12:55:51.756Z,9.93
2022-11-26T12:58:21.662Z,14.30
2022-11-26T13:00:52.725Z,11.30
2022-11-26T13:03:22.927Z,10.60
2022-11-26T13:05:51.585Z,8.97
2022-11-26T13:08:21.792Z,11.03
2022-11-26T13:10:57.522Z,8.00
2022-11-26T13:13:42.854Z,12.80
2022-11-26T13:16:22.096Z,7.50
2022-11-26T13:18:50.808Z,10.73
2022-11-26T13:21:36.076Z,11.97
2022-11-26T13:24:05.479Z,9.93
2022-11-26T13:26:44.750Z,8.47
2022-11-26T13:29:17.339Z,10.57
2022-11-26T13:31:59.283Z,9.67
2022-11-26T13:34:31.702Z,11.53
2022-11-26T13:37:18.544Z,9.93
2022-11-26T13:39:51.227Z,10.83
2022-11-26T13:42:35.416Z,11.60
2022-11-26T13:45:09.726Z,10.70
2022-11-26T13:47:54.225Z,10.97
2022-11-26T13:50:20.895Z,10.53
2022-11-26T13:52:52.304Z,11.77
2022-11-26T13:55:25.457Z,9.80
2022-11-26T13:57:56.795Z,7.17
2022-11-26T14:00:24.767Z,9.43
2022-11-26T14:02:51.442Z,11.57
2022-11-26T14:05:18.050Z,14.17
2022-11-26T14:07:45.313Z,10.90
2022-11-26T14:10:30.646Z,5.07
2022-11-26T14:13:03.049Z,10.63
2022-11-26T14:15:41.865Z,12.93
2022-11-26T14:18:09.413Z,12.43
2022-11-26T14:20:54.877Z,9.67
2022-11-26T14:23:41.502Z,9.10
2022-11-26T14:26:23.402Z,7.63
2022-11-26T14:28:51.092Z,8.53
2022-11-26T14:31:22.657Z,7.70
2022-11-26T14:33:50.929Z,8.10
2022-11-26T14:36:22.532Z,6.40
2022-11-26T14:39:07.219Z,11.23
2022-11-26T14:41:42.728Z,5.37
2022-11-26T14:44:14.033Z,9.17
2022-11-26T14:46:41.551Z,10.83
2022-11-26T14:49:14.953Z,11.23
2022-11-26T14:51:44.637Z,5.97
2022-11-26T14:54:31.337Z,9.67
2022-11-26T14:56:59.398Z,8.00
2022-11-26T14:59:26.193Z,13.37
2022-11-26T15:01:52.932Z,8.27
2022-11-26T15:04:34.730Z,8.53
2022-11-26T15:07:01.327Z,11.03
2022-11-26T15:09:28.372Z,10.97
2022-11-26T15:12:04.737Z,13.00
2022-11-26T15:14:39.701Z,10.13
2022-11-26T15:17:06.944Z,10.17
2022-11-26T15:19:35.357Z,13.47
2022-11-26T15:22:04.788Z,10.23
2022-11-26T15:24:31.513Z,10.07
2022-11-26T15:26:58.170Z,5.83
2022-11-26T15:29:30.846Z,9.73
2022-11-26T15:31:58.235Z,12.40
2022-11-26T15:34:25.537Z,6.33
2022-11-26T15:36:52.190Z,5.90
2022-11-26T15:39:44.903Z,8.33
2022-11-26T15:42:24.766Z,11.53
2022-11-26T15:44:51.342Z,14.43
2022-11-26T15:47:22.674Z,11.50
2022-11-26T15:49:52.202Z,12.73
2022-11-26T15:52:21.897Z,10.63
2022-11-26T15:57:40.139Z,9.70
2022-11-26T16:00:09.770Z,10.30
2022-11-26T16:02:38.650Z,10.10
2022-11-26T16:05:21.582Z,15.23
2022-11-26T16:08:02.234Z,15.47
2022-11-26T16:10:31.520Z,9.47
2022-11-26T16:13:16.822Z,9.10
2022-11-26T16:15:49.487Z,9.47
2022-11-26T16:18:17.242Z,9.70
2022-11-26T16:20:44.023Z,16.30
2022-11-26T16:23:22.094Z,13.17
2022-11-26T16:26:27.181Z,14.37
2022-11-26T16:28:53.932Z,11.23
2022-11-26T16:31:21.386Z,13.83
2022-11-26T16:33:48.128Z,11.90
2022-11-26T16:36:20.706Z,11.97
2022-11-26T16:38:48.204Z,9.90
2022-11-26T16:41:16.134Z,16.27
2022-11-26T16:43:42.809Z,13.70
2022-11-26T16:46:13.911Z,12.53
2022-11-26T16:48:41.158Z,11.47
2022-11-26T16:51:07.868Z,13.47
2022-11-26T16:53:34.564Z,16.80
2022-11-26T16:56:01.516Z,22.60
2022-11-26T16:58:33.557Z,16.00
2022-11-26T17:01:00.396Z,21.53
2022-11-26T17:03:33.063Z,19.37
2022-11-26T17:06:01.631Z,24.80
2022-11-26T17:08:29.197Z,18.07
2022-11-26T17:10:55.958Z,13.93
2022-11-26T17:13:22.709Z,16.00
2022-11-26T17:15:50.555Z,15.80
2022-11-26T17:18:26.227Z,17.10
2022-11-26T17:20:54.047Z,13.83
2022-11-26T17:23:21.104Z,15.30
2022-11-26T17:25:51.965Z,15.77
2022-11-26T17:28:18.623Z,14.67
2022-11-26T17:30:45.566Z,18.83
2022-11-26T17:33:12.488Z,13.87
2022-11-26T17:35:39.514Z,16.53
2022-11-26T17:38:16.560Z,14.10
2022-11-26T17:40:44.172Z,13.37
2022-11-26T17:43:10.978Z,13.97
2022-11-26T17:45:37.713Z,18.00
2022-11-26T17:48:04.709Z,20.10
2022-11-26T17:50:32.516Z,18.63
2022-11-26T17:52:59.253Z,15.00
2022-11-26T17:55:26.628Z,14.57
2022-11-26T17:57:55.271Z,15.60
2022-11-26T18:00:24.010Z,17.87
2022-11-26T18:02:51.327Z,13.13
2022-11-26T18:05:18.163Z,13.03
2022-11-26T18:07:44.909Z,14.03
2022-11-26T18:10:13.214Z,13.67
2022-11-26T18:12:40.377Z,14.23
2022-11-26T18:15:07.430Z,16.53
2022-11-26T18:17:34.318Z,23.10
2022-11-26T18:20:01.050Z,20.37
2022-11-26T18:22:28.460Z,24.70
2022-11-26T18:24:57.214Z,24.47
2022-11-26T18:27:27.780Z,18.87
2022-11-26T18:29:54.484Z,17.37
2022-11-26T18:32:21.326Z,19.60
2022-11-26T18:34:50.977Z,17.93
2022-11-26T18:37:17.993Z,20.47
2022-11-26T18:39:44.724Z,19.40
2022-11-26T18:44:59.323Z,18.87
2022-11-26T18:47:26.019Z,22.50
2022-11-26T18:49:55.981Z,18.70
2022-11-26T18:52:22.675Z,23.90
2022-11-26T18:54:49.324Z,16.40
2022-11-26T18:57:15.975Z,18.17
2022-11-26T18:59:43.186Z,22.63
2022-11-26T19:02:10.673Z,26.27
2022-11-26T19:04:39.109Z,18.63
2022-11-26T19:07:06.000Z,16.63
2022-11-26T19:09:32.990Z,18.90
2022-11-26T19:11:59.628Z,13.33
2022-11-26T19:14:26.352Z,12.27
2022-11-26T19:16:53.078Z,16.27
2022-11-26T19:19:19.800Z,14.53
2022-11-26T19:21:46.554Z,13.83
2022-11-26T19:24:14.269Z,16.47
2022-11-26T19:26:42.187Z,14.87
2022-11-26T19:29:09.733Z,9.87
2022-11-26T19:31:39.094Z,13.37
2022-11-26T19:34:08.072Z,15.83
2022-11-26T19:36:35.155Z,13.57
2022-11-26T19:39:02.019Z,19.20
2022-11-26T19:41:29.185Z,13.00
2022-11-26T19:43:55.982Z,12.30
2022-11-26T19:46:23.954Z,15.33
2022-11-26T19:48:51.753Z,18.87
2022-11-26T19:51:19.840Z,20.57
2022-11-26T19:53:50.536Z,13.83
2022-11-26T19:56:21.527Z,17.17
2022-11-26T19:58:48.284Z,14.43
2022-11-26T20:01:16.693Z,16.13
2022-11-26T20:03:43.697Z,13.13
2022-11-26T20:06:17.917Z,16.60
2022-11-26T20:08:44.816Z,14.30
2022-11-26T20:11:11.947Z,14.43
2022-11-26T20:13:40.194Z,16.03
2022-11-26T20:16:07.611Z,23.10
2022-11-26T20:18:35.520Z,20.00
2022-11-26T20:21:05.302Z,14.97
2022-11-26T20:23:32.020Z,17.77
2022-11-26T20:25:58.696Z,15.80
2022-11-26T20:28:25.302Z,18.30
2022-11-26T20:30:52.294Z,17.63
2022-11-26T20:33:19.481Z,12.27
2022-11-26T20:35:46.167Z,14.90
2022-11-26T20:38:13.385Z,16.47
2022-11-26T20:40:43.308Z,14.67
2022-11-26T20:43:11.002Z,14.60
2022-11-26T20:45:37.806Z,11.57
2022-11-26T20:48:04.876Z,17.40
2022-11-26T20:50:31.566Z,10.37
2022-11-26T20:52:58.305Z,16.13
2022-11-26T20:55:25.279Z,13.23
2022-11-26T20:57:52.087Z,15.10
2022-11-26T21:00:23.557Z,12.57
2022-11-26T21:02:52.902Z,9.93
2022-11-26T21:05:21.488Z,13.57
2022-11-26T21:07:48.878Z,11.27
2022-11-26T21:10:15.931Z,14.70
2022-11-26T21:12:43.055Z,14.00
2022-11-26T21:15:09.951Z,12.03
2022-11-26T21:17:36.596Z,14.47
2022-11-26T21:20:03.699Z,12.47
2022-11-26T21:22:30.311Z,11.60
2022-11-26T21:24:57.013Z,13.43
2022-11-26T21:27:26.727Z,13.83
2022-11-26T21:29:53.455Z,13.73
2022-11-26T21:32:20.172Z,18.47
2022-11-26T21:34:46.826Z,13.90
2022-11-26T21:37:13.486Z,12.73
2022-11-26T21:39:40.251Z,14.83
2022-11-26T21:42:07.303Z,10.60
2022-11-26T21:44:34.000Z,17.10
2022-11-26T21:47:02.767Z,16.13
2022-11-26T21:49:32.428Z,17.00
2022-11-26T21:51:59.268Z,15.33
2022-11-26T21:54:29.621Z,17.93
2022-11-26T21:56:56.260Z,16.93
2022-11-26T21:59:22.989Z,15.43
2022-11-26T22:01:49.805Z,20.60
2022-11-26T22:04:17.991Z,16.33
2022-11-26T22:06:45.446Z,20.83
2022-11-26T22:09:12.549Z,21.47
2022-11-26T22:11:40.337Z,19.37
2022-11-26T22:14:07.433Z,22.20
2022-11-26T22:16:34.392Z,16.50
2022-11-26T22:19:01.565Z,16.03
2022-11-26T22:21:29.317Z,16.10
2022-11-26T22:23:56.140Z,15.87
2022-11-26T22:26:22.755Z,19.97
2022-11-26T22:28:50.075Z,23.70
2022-11-26T22:31:19.813Z,21.33
2022-11-26T22:33:46.826Z,18.10
2022-11-26T22:36:13.856Z,18.93
2022-11-26T22:38:41.459Z,20.93
2022-11-26T22:41:09.310Z,18.57
2022-11-26T22:43:36.212Z,17.13
2022-11-26T22:46:03.805Z,21.27
2022-11-26T22:48:30.510Z,17.03
2022-11-26T22:50:57.295Z,17.03
2022-11-26T22:53:24.226Z,20.53
2022-11-26T22:55:52.506Z,19.07
2022-11-26T22:58:19.542Z,16.33
2022-11-26T23:00:46.189Z,17.43
2022-11-26T23:03:13.289Z,14.20
2022-11-26T23:05:40.266Z,13.63
2022-11-26T23:08:07.240Z,14.40
2022-11-26T23:10:33.880Z,19.13
2022-11-26T23:13:00.501Z,15.60
2022-11-26T23:15:27.159Z,16.00
2022-11-26T23:17:53.814Z,16.87
2022-11-26T23:20:20.689Z,20.73
2022-11-26T23:22:47.385Z,19.20
2022-11-26T23:25:14.016Z,20.37
2022-11-26T23:27:40.661Z,18.37
2022-11-26T23:30:07.674Z,16.83
2022-11-26T23:32:34.515Z,19.07
2022-11-26T23:35:01.812Z,17.33
2022-11-26T23:37:28.499Z,14.20
2022-11-26T23:39:55.155Z,18.17
2022-11-26T23:42:21.837Z,18.53
2022-11-26T23:44:48.470Z,17.00
2022-11-26T23:47:15.094Z,16.87
2022-11-26T23:49:41.930Z,14.43
2022-11-26T23:52:08.750Z,15.23
2022-11-26T23:54:35.341Z,16.90
2022-11-26T23:57:01.929Z,17.73
2022-11-26T23:59:28.636Z,14.17
